KZ-0045 weather

Narynkol Airport
Narynkol, Almaty Region, Kazakhstan

Public forecast

Using degrees Celsius for public forecast. Weather courtesy of forecast.io.

Closest aviation weather report (METAR) to Narynkol Airport

Report is more than 6 hours old.

Closest report is Aksu Airport, 87.6 nm (162.3 km) S. Retrieved 2016/10/03 17:00 UTC (3 years ago):

ZWAK 031700Z AUTO 04003MPS //// // NCD 12/M02 Q1026

Closest aviation forecast (TAF) to Narynkol Airport

Closest forecast is Almaty Airport, 143.2 nm (265.1 km) WNW. Retrieved 2019/10/14 06:24 UTC (6 hours ago):

TAF TAF COR UAAA 140500Z 1406/1506 34003MPS 9999 SCT050CB BKN100 TX20/1408Z TN02/1501Z TEMPO 1406/1412 29004G10MPS TEMPO 1412/1415 16003MPS 5000 BR FU TEMPO 1415/1424 24005G15MPS 3100 -SHRA BKN030CB OVC100